首页
METAR-TAF:

METAR-TAF

机场 :

罗斯托克-拉格机场

罗斯托克, 德国

纬度: 53-55N, 经度: 012-17E, 海拔: 40米

当前天气观测

该预报发布于29分钟前的20:20 UTC
风速6节,风向北转东北
温度 23°C
湿度 73%
气压 1018 hPa
能见度10公里或以上
多云层高于15000英尺
散云层高于20000英尺

METAR: ETNL 092020Z 03006KT 9999 BKN150 SCT200 23/18 Q1018 BLU

时间: 22:49 (20:49 UTC)

预报

该预报发布于4小时和49分钟前的16:00 UTC
预报有效从09日的 17点(UTC)到 10日的 05点(UTC)
风速7节,风向东北
能见度10公里或以上
散云层高于16000英尺
多云层高于23000英尺

TAF: ETNL 091600Z 0917/1005 04007KT 9999 NSW SCT160 BKN230 BY ETGL

超过4000个机场的气象观测和天气预报(METAR&TAF报告)。

可查询的气象台以黄色和红色小点在地图上表示。

将鼠标移到小点上方,可查看气象台名称。

然后点击查看天气观测和预报。

如需切换地图:点击带黑十字的绿色按钮放大地图;点击带横线的绿色按钮缩小地图;或者点击绿色箭头查看邻近地区的地图。


METAR-TAF: